Phaethon — SVAM2 — position and weather

sailwx.info

Track history (hours):
 
Tides and Currents Weather Stations Pressure Air Temp Water Temp Dewpoint Dewpoint Depression Visibility Wind Speed Wind Dir Waves Ship Positions

Phaethon

Last reported at 2017-Mar-19 16:24 UTC. Time now 2017-Mar-28 21:41 UTC.
Position N 01°56' E 102°17'.
Warning: this ship's position is 9 days out of date.

Length 274 m; draft 9.5 m.

Type: Tanker. MMSI: 240836000.

Date/timePositionNaut miles runAvg speedWind from/ knotsBaromVisibWave heightAir tempDewpointWater temp
2017-Mar-19 16:24N 01°56' E 102°17'1012.3
2017-Mar-19 15:33N 01°51' E 102°26'1312.7
2017-Mar-19 14:33N 01°46' E 102°38'5714.2
2017-Mar-19 10:33N 01°14' E 103°25'1313.5
2017-Mar-19 09:33N 01°12' E 103°38'5 5.5
2017-Mar-19 08:33N 01°09' E 103°43'1110.9
2017-Mar-19 07:33N 01°13' E 103°53'10 9.8
2017-Mar-19 06:33N 01°16' E 104°02'  
2017-Mar-14 11:33N 22°27' E 119°52'1413.7
2017-Mar-14 10:33N 22°40' E 119°52'1513.9
2017-Mar-14 09:30N 22°55' E 119°53'  
Track history (hours):
 
Tides and Currents Weather Stations Pressure Air Temp Water Temp Dewpoint Dewpoint Depression Visibility Wind Speed Wind Dir Waves Ship Positions

Phaethon

Last reported at 2017-Mar-19 16:24 UTC. Time now 2017-Mar-28 21:41 UTC.
Position N 01°56' E 102°17'.
Warning: this ship's position is 9 days out of date.

Length 274 m; draft 9.5 m.

Type: Tanker. MMSI: 240836000.

Date/timePositionNaut miles runAvg speedWind from/ knotsBaromVisibWave heightAir tempDewpointWater temp
2017-Mar-19 16:24N 01°56' E 102°17'1012.3
2017-Mar-19 15:33N 01°51' E 102°26'1312.7
2017-Mar-19 14:33N 01°46' E 102°38'5714.2
2017-Mar-19 10:33N 01°14' E 103°25'1313.5
2017-Mar-19 09:33N 01°12' E 103°38'5 5.5
2017-Mar-19 08:33N 01°09' E 103°43'1110.9
2017-Mar-19 07:33N 01°13' E 103°53'10 9.8
2017-Mar-19 06:33N 01°16' E 104°02'  
2017-Mar-14 11:33N 22°27' E 119°52'1413.7
2017-Mar-14 10:33N 22°40' E 119°52'1513.9
2017-Mar-14 09:30N 22°55' E 119°53'  

Dump ship's entire track history